sensor_id;sensor_type;location;lat;lon;timestamp;temperature;humidity
5276;DHT22;2661;50.786;12.728;2024-01-25T00:00:09;7.50;1.00
5276;DHT22;2661;50.786;12.728;2024-01-25T00:02:37;7.50;1.00
5276;DHT22;2661;50.786;12.728;2024-01-25T00:05:04;7.50;1.00
5276;DHT22;2661;50.786;12.728;2024-01-25T00:07:31;7.50;1.00
5276;DHT22;2661;50.786;12.728;2024-01-25T00:09:58;7.50;1.00
5276;DHT22;2661;50.786;12.728;2024-01-25T00:12:25;7.50;1.00
5276;DHT22;2661;50.786;12.728;2024-01-25T00:14:53;7.50;1.00
5276;DHT22;2661;50.786;12.728;2024-01-25T00:17:20;7.40;1.00
5276;DHT22;2661;50.786;12.728;2024-01-25T00:19:47;7.40;1.00
5276;DHT22;2661;50.786;12.728;2024-01-25T00:22:13;7.40;1.00
5276;DHT22;2661;50.786;12.728;2024-01-25T00:24:40;7.40;1.00
5276;DHT22;2661;50.786;12.728;2024-01-25T00:27:07;7.40;1.00
5276;DHT22;2661;50.786;12.728;2024-01-25T00:29:34;7.40;1.00
5276;DHT22;2661;50.786;12.728;2024-01-25T00:32:00;7.30;1.00
5276;DHT22;2661;50.786;12.728;2024-01-25T00:34:28;7.30;1.00
5276;DHT22;2661;50.786;12.728;2024-01-25T00:36:54;7.30;1.00
5276;DHT22;2661;50.786;12.728;2024-01-25T00:39:21;7.30;1.00
5276;DHT22;2661;50.786;12.728;2024-01-25T00:41:49;7.30;1.00
5276;DHT22;2661;50.786;12.728;2024-01-25T00:44:17;7.30;1.00
5276;DHT22;2661;50.786;12.728;2024-01-25T00:46:44;7.30;1.00
5276;DHT22;2661;50.786;12.728;2024-01-25T00:49:13;7.30;1.00
5276;DHT22;2661;50.786;12.728;2024-01-25T00:51:41;7.40;1.00
5276;DHT22;2661;50.786;12.728;2024-01-25T00:54:11;7.30;1.00
5276;DHT22;2661;50.786;12.728;2024-01-25T00:56:38;7.30;1.00
5276;DHT22;2661;50.786;12.728;2024-01-25T00:59:05;7.30;1.00
5276;DHT22;2661;50.786;12.728;2024-01-25T01:01:32;7.30;1.00
5276;DHT22;2661;50.786;12.728;2024-01-25T01:03:59;7.30;1.00
5276;DHT22;2661;50.786;12.728;2024-01-25T01:06:26;7.30;1.00
5276;DHT22;2661;50.786;12.728;2024-01-25T01:08:53;7.30;1.00
5276;DHT22;2661;50.786;12.728;2024-01-25T01:11:19;7.30;1.00
5276;DHT22;2661;50.786;12.728;2024-01-25T01:13:46;7.20;1.00
5276;DHT22;2661;50.786;12.728;2024-01-25T01:16:13;7.20;1.00
5276;DHT22;2661;50.786;12.728;2024-01-25T01:18:40;7.20;1.00
5276;DHT22;2661;50.786;12.728;2024-01-25T01:21:07;7.20;1.00
5276;DHT22;2661;50.786;12.728;2024-01-25T01:23:33;7.20;1.00
5276;DHT22;2661;50.786;12.728;2024-01-25T01:26:00;7.20;1.00
5276;DHT22;2661;50.786;12.728;2024-01-25T01:28:26;7.20;1.00
5276;DHT22;2661;50.786;12.728;2024-01-25T01:30:53;7.20;1.00
5276;DHT22;2661;50.786;12.728;2024-01-25T01:33:20;7.20;1.00
5276;DHT22;2661;50.786;12.728;2024-01-25T01:35:47;7.20;1.00
5276;DHT22;2661;50.786;12.728;2024-01-25T01:38:13;7.20;1.00
5276;DHT22;2661;50.786;12.728;2024-01-25T01:40:40;7.20;1.00
5276;DHT22;2661;50.786;12.728;2024-01-25T01:43:07;7.20;1.00
5276;DHT22;2661;50.786;12.728;2024-01-25T01:45:33;7.20;1.00
5276;DHT22;2661;50.786;12.728;2024-01-25T01:48:00;7.20;1.00
5276;DHT22;2661;50.786;12.728;2024-01-25T01:50:27;7.20;1.00
5276;DHT22;2661;50.786;12.728;2024-01-25T01:52:54;7.20;1.00
5276;DHT22;2661;50.786;12.728;2024-01-25T01:55:21;7.20;1.00
5276;DHT22;2661;50.786;12.728;2024-01-25T01:57:48;7.20;1.00
5276;DHT22;2661;50.786;12.728;2024-01-25T02:00:15;7.20;1.00
5276;DHT22;2661;50.786;12.728;2024-01-25T02:02:43;7.20;1.00
5276;DHT22;2661;50.786;12.728;2024-01-25T02:05:10;7.10;1.00
5276;DHT22;2661;50.786;12.728;2024-01-25T02:07:37;7.10;1.00
5276;DHT22;2661;50.786;12.728;2024-01-25T02:10:05;7.10;1.00
5276;DHT22;2661;50.786;12.728;2024-01-25T02:12:31;7.10;1.00
5276;DHT22;2661;50.786;12.728;2024-01-25T02:14:58;7.10;1.00
5276;DHT22;2661;50.786;12.728;2024-01-25T02:17:25;7.20;1.00
5276;DHT22;2661;50.786;12.728;2024-01-25T02:19:52;7.20;1.00
5276;DHT22;2661;50.786;12.728;2024-01-25T02:22:19;7.10;1.00
5276;DHT22;2661;50.786;12.728;2024-01-25T02:24:46;7.10;1.00
5276;DHT22;2661;50.786;12.728;2024-01-25T02:27:13;7.10;1.00
5276;DHT22;2661;50.786;12.728;2024-01-25T02:29:39;7.10;1.00
5276;DHT22;2661;50.786;12.728;2024-01-25T02:32:06;7.10;1.00
5276;DHT22;2661;50.786;12.728;2024-01-25T02:34:33;7.00;1.00
5276;DHT22;2661;50.786;12.728;2024-01-25T02:37:00;7.10;1.00
5276;DHT22;2661;50.786;12.728;2024-01-25T02:39:26;7.00;1.00
5276;DHT22;2661;50.786;12.728;2024-01-25T02:41:53;7.00;1.00
5276;DHT22;2661;50.786;12.728;2024-01-25T02:44:20;7.00;1.00
5276;DHT22;2661;50.786;12.728;2024-01-25T02:46:46;7.00;1.00
5276;DHT22;2661;50.786;12.728;2024-01-25T02:49:13;7.00;1.00
5276;DHT22;2661;50.786;12.728;2024-01-25T02:51:40;7.00;1.00
5276;DHT22;2661;50.786;12.728;2024-01-25T02:54:07;7.00;1.00
5276;DHT22;2661;50.786;12.728;2024-01-25T02:56:33;7.00;1.00
5276;DHT22;2661;50.786;12.728;2024-01-25T02:59:01;6.90;1.00
5276;DHT22;2661;50.786;12.728;2024-01-25T03:01:28;6.90;1.00
5276;DHT22;2661;50.786;12.728;2024-01-25T03:04:03;7.00;1.00
5276;DHT22;2661;50.786;12.728;2024-01-25T03:06:30;6.90;1.00
5276;DHT22;2661;50.786;12.728;2024-01-25T03:08:57;6.90;1.00
5276;DHT22;2661;50.786;12.728;2024-01-25T03:11:23;7.00;1.00
5276;DHT22;2661;50.786;12.728;2024-01-25T03:13:50;6.90;1.00
5276;DHT22;2661;50.786;12.728;2024-01-25T03:16:16;6.90;1.00
5276;DHT22;2661;50.786;12.728;2024-01-25T03:18:43;6.90;1.00
5276;DHT22;2661;50.786;12.728;2024-01-25T03:21:10;6.90;1.00
5276;DHT22;2661;50.786;12.728;2024-01-25T03:23:37;6.90;1.00
5276;DHT22;2661;50.786;12.728;2024-01-25T03:26:03;6.90;1.00
5276;DHT22;2661;50.786;12.728;2024-01-25T03:28:30;6.90;1.00
5276;DHT22;2661;50.786;12.728;2024-01-25T03:30:57;6.90;1.00
5276;DHT22;2661;50.786;12.728;2024-01-25T03:33:23;6.90;1.00
5276;DHT22;2661;50.786;12.728;2024-01-25T03:35:51;6.90;1.00
5276;DHT22;2661;50.786;12.728;2024-01-25T03:38:18;6.80;1.00
5276;DHT22;2661;50.786;12.728;2024-01-25T03:40:45;6.80;1.00
5276;DHT22;2661;50.786;12.728;2024-01-25T03:43:11;6.80;1.00
5276;DHT22;2661;50.786;12.728;2024-01-25T03:45:47;6.80;1.00
5276;DHT22;2661;50.786;12.728;2024-01-25T03:48:14;6.90;1.00
5276;DHT22;2661;50.786;12.728;2024-01-25T03:50:41;6.90;1.00
5276;DHT22;2661;50.786;12.728;2024-01-25T03:53:07;6.80;1.00
5276;DHT22;2661;50.786;12.728;2024-01-25T03:55:34;6.90;1.00
5276;DHT22;2661;50.786;12.728;2024-01-25T03:58:01;6.90;1.00
5276;DHT22;2661;50.786;12.728;2024-01-25T04:00:27;6.80;1.00
5276;DHT22;2661;50.786;12.728;2024-01-25T04:02:54;6.80;1.00
5276;DHT22;2661;50.786;12.728;2024-01-25T04:05:21;6.80;1.00
5276;DHT22;2661;50.786;12.728;2024-01-25T04:07:47;6.70;1.00
5276;DHT22;2661;50.786;12.728;2024-01-25T04:10:14;6.70;1.00
5276;DHT22;2661;50.786;12.728;2024-01-25T04:12:41;6.70;1.00
5276;DHT22;2661;50.786;12.728;2024-01-25T04:15:08;6.70;1.00
5276;DHT22;2661;50.786;12.728;2024-01-25T04:17:36;6.70;1.00
5276;DHT22;2661;50.786;12.728;2024-01-25T04:20:02;6.70;1.00
5276;DHT22;2661;50.786;12.728;2024-01-25T04:22:29;6.70;1.00
5276;DHT22;2661;50.786;12.728;2024-01-25T04:24:56;6.80;1.00
5276;DHT22;2661;50.786;12.728;2024-01-25T04:27:23;6.80;1.00
5276;DHT22;2661;50.786;12.728;2024-01-25T04:29:49;6.70;1.00
5276;DHT22;2661;50.786;12.728;2024-01-25T04:32:16;6.70;1.00
5276;DHT22;2661;50.786;12.728;2024-01-25T04:34:43;6.70;1.00
5276;DHT22;2661;50.786;12.728;2024-01-25T04:37:11;6.70;1.00
5276;DHT22;2661;50.786;12.728;2024-01-25T04:39:38;6.70;1.00
5276;DHT22;2661;50.786;12.728;2024-01-25T04:42:04;6.70;1.00
5276;DHT22;2661;50.786;12.728;2024-01-25T04:44:31;6.70;1.00
5276;DHT22;2661;50.786;12.728;2024-01-25T04:46:58;6.70;1.00
5276;DHT22;2661;50.786;12.728;2024-01-25T04:49:24;6.70;1.00
5276;DHT22;2661;50.786;12.728;2024-01-25T04:51:51;6.70;1.00
5276;DHT22;2661;50.786;12.728;2024-01-25T04:54:18;6.70;1.00
5276;DHT22;2661;50.786;12.728;2024-01-25T04:56:44;6.70;1.00
5276;DHT22;2661;50.786;12.728;2024-01-25T04:59:11;6.70;1.00
5276;DHT22;2661;50.786;12.728;2024-01-25T05:01:38;6.70;1.00
5276;DHT22;2661;50.786;12.728;2024-01-25T05:04:05;6.60;1.00
5276;DHT22;2661;50.786;12.728;2024-01-25T05:06:32;6.60;1.00
5276;DHT22;2661;50.786;12.728;2024-01-25T05:08:59;6.60;1.00
5276;DHT22;2661;50.786;12.728;2024-01-25T05:11:25;6.70;1.00
5276;DHT22;2661;50.786;12.728;2024-01-25T05:13:52;6.60;1.00
5276;DHT22;2661;50.786;12.728;2024-01-25T05:16:18;6.70;1.00
5276;DHT22;2661;50.786;12.728;2024-01-25T05:18:45;6.60;1.00
5276;DHT22;2661;50.786;12.728;2024-01-25T05:21:12;6.60;1.00
5276;DHT22;2661;50.786;12.728;2024-01-25T05:23:38;6.60;1.00
5276;DHT22;2661;50.786;12.728;2024-01-25T05:26:05;6.50;1.00
5276;DHT22;2661;50.786;12.728;2024-01-25T05:28:32;6.50;1.00
5276;DHT22;2661;50.786;12.728;2024-01-25T05:30:59;6.60;1.00
5276;DHT22;2661;50.786;12.728;2024-01-25T05:33:28;6.60;1.00
5276;DHT22;2661;50.786;12.728;2024-01-25T05:35:55;6.60;1.00
5276;DHT22;2661;50.786;12.728;2024-01-25T05:38:22;6.50;1.00
5276;DHT22;2661;50.786;12.728;2024-01-25T05:40:48;6.60;1.00
5276;DHT22;2661;50.786;12.728;2024-01-25T05:43:15;6.50;1.00
5276;DHT22;2661;50.786;12.728;2024-01-25T05:45:42;6.50;1.00
5276;DHT22;2661;50.786;12.728;2024-01-25T05:48:10;6.50;1.00
5276;DHT22;2661;50.786;12.728;2024-01-25T05:50:36;6.50;1.00
5276;DHT22;2661;50.786;12.728;2024-01-25T05:53:03;6.50;1.00
5276;DHT22;2661;50.786;12.728;2024-01-25T05:55:30;6.50;1.00
5276;DHT22;2661;50.786;12.728;2024-01-25T05:57:57;6.40;1.00
5276;DHT22;2661;50.786;12.728;2024-01-25T06:00:24;6.40;1.00
5276;DHT22;2661;50.786;12.728;2024-01-25T06:02:50;6.50;1.00
5276;DHT22;2661;50.786;12.728;2024-01-25T06:05:17;6.50;1.00
5276;DHT22;2661;50.786;12.728;2024-01-25T06:07:45;6.50;1.00
5276;DHT22;2661;50.786;12.728;2024-01-25T06:10:13;6.40;1.00
5276;DHT22;2661;50.786;12.728;2024-01-25T06:12:39;6.40;1.00
5276;DHT22;2661;50.786;12.728;2024-01-25T06:15:06;6.40;1.00
5276;DHT22;2661;50.786;12.728;2024-01-25T06:17:33;6.40;1.00
5276;DHT22;2661;50.786;12.728;2024-01-25T06:20:00;6.40;1.00
5276;DHT22;2661;50.786;12.728;2024-01-25T06:22:27;6.40;1.00
5276;DHT22;2661;50.786;12.728;2024-01-25T06:24:54;6.40;1.00
5276;DHT22;2661;50.786;12.728;2024-01-25T06:27:20;6.40;1.00
5276;DHT22;2661;50.786;12.728;2024-01-25T06:29:47;6.40;1.00
5276;DHT22;2661;50.786;12.728;2024-01-25T06:32:13;6.40;1.00
5276;DHT22;2661;50.786;12.728;2024-01-25T06:34:51;6.40;1.00
5276;DHT22;2661;50.786;12.728;2024-01-25T06:37:18;6.40;1.00
5276;DHT22;2661;50.786;12.728;2024-01-25T06:39:45;6.40;1.00
5276;DHT22;2661;50.786;12.728;2024-01-25T06:42:12;6.40;1.00
5276;DHT22;2661;50.786;12.728;2024-01-25T06:44:38;6.40;1.00
5276;DHT22;2661;50.786;12.728;2024-01-25T06:47:05;6.40;1.00
5276;DHT22;2661;50.786;12.728;2024-01-25T06:49:32;6.40;1.00
5276;DHT22;2661;50.786;12.728;2024-01-25T06:51:59;6.40;1.00
5276;DHT22;2661;50.786;12.728;2024-01-25T06:54:25;6.40;1.00
5276;DHT22;2661;50.786;12.728;2024-01-25T06:56:52;6.40;1.00
5276;DHT22;2661;50.786;12.728;2024-01-25T06:59:19;6.40;1.00
5276;DHT22;2661;50.786;12.728;2024-01-25T07:01:46;6.30;1.00
5276;DHT22;2661;50.786;12.728;2024-01-25T07:04:13;6.30;1.00
5276;DHT22;2661;50.786;12.728;2024-01-25T07:06:41;6.30;1.00
5276;DHT22;2661;50.786;12.728;2024-01-25T07:09:08;6.30;1.00
5276;DHT22;2661;50.786;12.728;2024-01-25T07:11:35;6.30;1.00
5276;DHT22;2661;50.786;12.728;2024-01-25T07:14:01;6.30;1.00
5276;DHT22;2661;50.786;12.728;2024-01-25T07:16:28;6.30;1.00
5276;DHT22;2661;50.786;12.728;2024-01-25T07:18:56;6.30;1.00
5276;DHT22;2661;50.786;12.728;2024-01-25T07:21:23;6.30;1.00
5276;DHT22;2661;50.786;12.728;2024-01-25T07:23:50;6.30;1.00
5276;DHT22;2661;50.786;12.728;2024-01-25T07:26:17;6.30;1.00
5276;DHT22;2661;50.786;12.728;2024-01-25T07:28:44;6.30;1.00
5276;DHT22;2661;50.786;12.728;2024-01-25T07:31:12;6.30;1.00
5276;DHT22;2661;50.786;12.728;2024-01-25T07:33:39;6.20;1.00
5276;DHT22;2661;50.786;12.728;2024-01-25T07:36:06;6.30;1.00
5276;DHT22;2661;50.786;12.728;2024-01-25T07:38:32;6.30;1.00
5276;DHT22;2661;50.786;12.728;2024-01-25T07:40:59;6.30;1.00
5276;DHT22;2661;50.786;12.728;2024-01-25T07:43:26;6.30;1.00
5276;DHT22;2661;50.786;12.728;2024-01-25T07:45:53;6.30;1.00
5276;DHT22;2661;50.786;12.728;2024-01-25T07:48:20;6.30;1.00
5276;DHT22;2661;50.786;12.728;2024-01-25T07:50:47;6.30;1.00
5276;DHT22;2661;50.786;12.728;2024-01-25T07:53:14;6.30;1.00
5276;DHT22;2661;50.786;12.728;2024-01-25T07:55:42;6.30;1.00
5276;DHT22;2661;50.786;12.728;2024-01-25T07:58:09;6.30;1.00
5276;DHT22;2661;50.786;12.728;2024-01-25T08:00:36;6.40;1.00
5276;DHT22;2661;50.786;12.728;2024-01-25T08:03:03;6.40;1.00
5276;DHT22;2661;50.786;12.728;2024-01-25T08:05:30;6.40;1.00
5276;DHT22;2661;50.786;12.728;2024-01-25T08:08:10;6.40;1.00
5276;DHT22;2661;50.786;12.728;2024-01-25T08:10:36;6.30;1.00
5276;DHT22;2661;50.786;12.728;2024-01-25T08:13:03;6.40;1.00
5276;DHT22;2661;50.786;12.728;2024-01-25T08:15:33;6.40;1.00
5276;DHT22;2661;50.786;12.728;2024-01-25T08:18:00;6.40;1.00
5276;DHT22;2661;50.786;12.728;2024-01-25T08:20:27;6.40;1.00
5276;DHT22;2661;50.786;12.728;2024-01-25T08:22:55;6.50;1.00
5276;DHT22;2661;50.786;12.728;2024-01-25T08:25:21;6.40;1.00
5276;DHT22;2661;50.786;12.728;2024-01-25T08:27:48;6.40;1.00
5276;DHT22;2661;50.786;12.728;2024-01-25T08:30:15;6.40;1.00
5276;DHT22;2661;50.786;12.728;2024-01-25T08:32:42;6.50;1.00
5276;DHT22;2661;50.786;12.728;2024-01-25T08:35:09;6.50;1.00
5276;DHT22;2661;50.786;12.728;2024-01-25T08:37:37;6.50;1.00
5276;DHT22;2661;50.786;12.728;2024-01-25T08:40:04;6.50;1.00
5276;DHT22;2661;50.786;12.728;2024-01-25T08:42:33;6.50;1.00
5276;DHT22;2661;50.786;12.728;2024-01-25T08:44:59;6.40;1.00
5276;DHT22;2661;50.786;12.728;2024-01-25T08:47:26;6.50;1.00
5276;DHT22;2661;50.786;12.728;2024-01-25T08:49:53;6.50;1.00
5276;DHT22;2661;50.786;12.728;2024-01-25T08:52:19;6.40;1.00
5276;DHT22;2661;50.786;12.728;2024-01-25T08:54:46;6.40;1.00
5276;DHT22;2661;50.786;12.728;2024-01-25T08:57:13;6.40;1.00
5276;DHT22;2661;50.786;12.728;2024-01-25T08:59:41;6.40;1.00
5276;DHT22;2661;50.786;12.728;2024-01-25T09:02:08;6.50;1.00
5276;DHT22;2661;50.786;12.728;2024-01-25T09:04:35;6.50;1.00
5276;DHT22;2661;50.786;12.728;2024-01-25T09:07:03;6.50;1.00
5276;DHT22;2661;50.786;12.728;2024-01-25T09:09:30;6.50;1.00
5276;DHT22;2661;50.786;12.728;2024-01-25T09:11:56;6.50;1.00
5276;DHT22;2661;50.786;12.728;2024-01-25T09:14:23;6.60;1.00
5276;DHT22;2661;50.786;12.728;2024-01-25T09:16:50;6.70;1.00
5276;DHT22;2661;50.786;12.728;2024-01-25T09:19:16;6.80;1.00
5276;DHT22;2661;50.786;12.728;2024-01-25T09:21:43;6.90;1.00
5276;DHT22;2661;50.786;12.728;2024-01-25T09:24:10;6.90;1.00
5276;DHT22;2661;50.786;12.728;2024-01-25T09:26:37;7.00;1.00
5276;DHT22;2661;50.786;12.728;2024-01-25T09:29:03;7.00;1.00
5276;DHT22;2661;50.786;12.728;2024-01-25T09:31:31;7.10;1.00
5276;DHT22;2661;50.786;12.728;2024-01-25T09:33:58;7.10;1.00
5276;DHT22;2661;50.786;12.728;2024-01-25T09:36:25;7.10;1.00
5276;DHT22;2661;50.786;12.728;2024-01-25T09:38:52;7.00;1.00
5276;DHT22;2661;50.786;12.728;2024-01-25T09:41:19;7.00;1.00
5276;DHT22;2661;50.786;12.728;2024-01-25T09:43:46;7.00;1.00
5276;DHT22;2661;50.786;12.728;2024-01-25T09:46:13;7.00;1.00
5276;DHT22;2661;50.786;12.728;2024-01-25T09:48:42;7.10;1.00
5276;DHT22;2661;50.786;12.728;2024-01-25T09:51:11;7.10;1.00
5276;DHT22;2661;50.786;12.728;2024-01-25T09:53:38;7.10;1.00
5276;DHT22;2661;50.786;12.728;2024-01-25T09:56:10;7.20;1.00
5276;DHT22;2661;50.786;12.728;2024-01-25T09:58:42;7.20;1.00
5276;DHT22;2661;50.786;12.728;2024-01-25T10:01:09;7.10;1.00
5276;DHT22;2661;50.786;12.728;2024-01-25T10:03:38;7.10;1.00
5276;DHT22;2661;50.786;12.728;2024-01-25T10:06:06;7.10;1.00
5276;DHT22;2661;50.786;12.728;2024-01-25T10:08:34;7.10;1.00
5276;DHT22;2661;50.786;12.728;2024-01-25T10:11:01;7.10;1.00
5276;DHT22;2661;50.786;12.728;2024-01-25T10:13:27;7.10;1.00
5276;DHT22;2661;50.786;12.728;2024-01-25T10:15:54;7.10;1.00
5276;DHT22;2661;50.786;12.728;2024-01-25T10:18:27;7.10;1.00
5276;DHT22;2661;50.786;12.728;2024-01-25T10:20:56;7.00;1.00
5276;DHT22;2661;50.786;12.728;2024-01-25T10:23:23;7.00;1.00
5276;DHT22;2661;50.786;12.728;2024-01-25T10:25:52;7.00;1.00
5276;DHT22;2661;50.786;12.728;2024-01-25T10:28:19;7.10;1.00
5276;DHT22;2661;50.786;12.728;2024-01-25T10:30:46;7.10;1.00
5276;DHT22;2661;50.786;12.728;2024-01-25T10:33:13;7.10;1.00
5276;DHT22;2661;50.786;12.728;2024-01-25T10:35:40;7.10;1.00
5276;DHT22;2661;50.786;12.728;2024-01-25T10:38:09;7.10;1.00
5276;DHT22;2661;50.786;12.728;2024-01-25T10:40:36;7.00;1.00
5276;DHT22;2661;50.786;12.728;2024-01-25T10:43:03;7.00;1.00
5276;DHT22;2661;50.786;12.728;2024-01-25T10:45:30;7.00;1.00
5276;DHT22;2661;50.786;12.728;2024-01-25T10:47:57;7.00;1.00
5276;DHT22;2661;50.786;12.728;2024-01-25T10:50:24;7.00;1.00
5276;DHT22;2661;50.786;12.728;2024-01-25T10:52:52;7.00;1.00
5276;DHT22;2661;50.786;12.728;2024-01-25T10:55:19;7.10;1.00
5276;DHT22;2661;50.786;12.728;2024-01-25T10:57:46;7.10;1.00
5276;DHT22;2661;50.786;12.728;2024-01-25T11:00:14;7.20;1.00
5276;DHT22;2661;50.786;12.728;2024-01-25T11:02:42;7.20;1.00
5276;DHT22;2661;50.786;12.728;2024-01-25T11:05:10;7.20;1.00
5276;DHT22;2661;50.786;12.728;2024-01-25T11:07:42;7.20;1.00
5276;DHT22;2661;50.786;12.728;2024-01-25T11:10:16;7.20;1.00
5276;DHT22;2661;50.786;12.728;2024-01-25T11:13:16;7.20;1.00
5276;DHT22;2661;50.786;12.728;2024-01-25T11:15:36;7.20;1.00
5276;DHT22;2661;50.786;12.728;2024-01-25T11:18:03;7.30;1.00
5276;DHT22;2661;50.786;12.728;2024-01-25T11:20:33;7.40;1.00
5276;DHT22;2661;50.786;12.728;2024-01-25T11:23:03;7.50;1.00
5276;DHT22;2661;50.786;12.728;2024-01-25T11:25:31;7.70;1.00
5276;DHT22;2661;50.786;12.728;2024-01-25T11:27:59;7.70;1.00
5276;DHT22;2661;50.786;12.728;2024-01-25T11:30:26;7.70;1.00
5276;DHT22;2661;50.786;12.728;2024-01-25T11:32:52;7.70;1.00
5276;DHT22;2661;50.786;12.728;2024-01-25T11:35:19;7.70;1.00
5276;DHT22;2661;50.786;12.728;2024-01-25T11:37:50;7.60;1.00
5276;DHT22;2661;50.786;12.728;2024-01-25T11:40:20;7.60;1.00
5276;DHT22;2661;50.786;12.728;2024-01-25T11:42:47;7.60;1.00
5276;DHT22;2661;50.786;12.728;2024-01-25T11:45:15;7.60;1.00
5276;DHT22;2661;50.786;12.728;2024-01-25T11:47:42;7.60;1.00
5276;DHT22;2661;50.786;12.728;2024-01-25T11:50:10;7.60;1.00
5276;DHT22;2661;50.786;12.728;2024-01-25T11:52:38;7.60;1.00
5276;DHT22;2661;50.786;12.728;2024-01-25T11:55:05;7.60;1.00
5276;DHT22;2661;50.786;12.728;2024-01-25T11:57:37;7.60;1.00
5276;DHT22;2661;50.786;12.728;2024-01-25T12:00:04;7.60;1.00
5276;DHT22;2661;50.786;12.728;2024-01-25T12:02:32;7.60;1.00
5276;DHT22;2661;50.786;12.728;2024-01-25T12:04:59;7.60;1.00
5276;DHT22;2661;50.786;12.728;2024-01-25T12:07:25;7.60;1.00
5276;DHT22;2661;50.786;12.728;2024-01-25T12:12:25;7.50;1.00
5276;DHT22;2661;50.786;12.728;2024-01-25T12:14:56;7.50;1.00
5276;DHT22;2661;50.786;12.728;2024-01-25T12:17:23;7.40;1.00
5276;DHT22;2661;50.786;12.728;2024-01-25T12:19:50;7.40;1.00
5276;DHT22;2661;50.786;12.728;2024-01-25T12:22:20;7.30;1.00
5276;DHT22;2661;50.786;12.728;2024-01-25T12:24:47;7.30;1.00
5276;DHT22;2661;50.786;12.728;2024-01-25T12:27:26;7.30;1.00
5276;DHT22;2661;50.786;12.728;2024-01-25T12:29:53;7.30;1.00
5276;DHT22;2661;50.786;12.728;2024-01-25T12:32:22;7.30;1.00
5276;DHT22;2661;50.786;12.728;2024-01-25T12:34:52;7.30;1.00
5276;DHT22;2661;50.786;12.728;2024-01-25T12:37:19;7.30;1.00
5276;DHT22;2661;50.786;12.728;2024-01-25T12:39:46;7.30;1.00
5276;DHT22;2661;50.786;12.728;2024-01-25T12:42:13;7.30;1.00
5276;DHT22;2661;50.786;12.728;2024-01-25T12:44:40;7.30;1.00
5276;DHT22;2661;50.786;12.728;2024-01-25T12:47:07;7.30;1.00
5276;DHT22;2661;50.786;12.728;2024-01-25T12:49:34;7.20;1.00
5276;DHT22;2661;50.786;12.728;2024-01-25T12:52:00;7.20;1.00
5276;DHT22;2661;50.786;12.728;2024-01-25T12:54:27;7.20;1.00
5276;DHT22;2661;50.786;12.728;2024-01-25T12:56:55;7.20;1.00
5276;DHT22;2661;50.786;12.728;2024-01-25T12:59:22;7.30;1.00
5276;DHT22;2661;50.786;12.728;2024-01-25T13:01:49;7.20;1.00
5276;DHT22;2661;50.786;12.728;2024-01-25T13:04:16;7.30;1.00
5276;DHT22;2661;50.786;12.728;2024-01-25T13:06:43;7.30;1.00
5276;DHT22;2661;50.786;12.728;2024-01-25T13:09:10;7.30;1.00
5276;DHT22;2661;50.786;12.728;2024-01-25T13:11:37;7.30;1.00
5276;DHT22;2661;50.786;12.728;2024-01-25T13:14:04;7.30;1.00
5276;DHT22;2661;50.786;12.728;2024-01-25T13:16:39;7.20;1.00
5276;DHT22;2661;50.786;12.728;2024-01-25T13:19:06;7.20;1.00
5276;DHT22;2661;50.786;12.728;2024-01-25T13:21:33;7.20;1.00
5276;DHT22;2661;50.786;12.728;2024-01-25T13:23:59;7.30;1.00
5276;DHT22;2661;50.786;12.728;2024-01-25T13:26:27;7.30;1.00
5276;DHT22;2661;50.786;12.728;2024-01-25T13:28:53;7.30;1.00
5276;DHT22;2661;50.786;12.728;2024-01-25T13:31:20;7.20;1.00
5276;DHT22;2661;50.786;12.728;2024-01-25T13:33:47;7.20;1.00
5276;DHT22;2661;50.786;12.728;2024-01-25T13:36:14;7.20;1.00
5276;DHT22;2661;50.786;12.728;2024-01-25T13:38:41;7.20;1.00
5276;DHT22;2661;50.786;12.728;2024-01-25T13:41:08;7.20;1.00
5276;DHT22;2661;50.786;12.728;2024-01-25T13:43:34;7.20;1.00
5276;DHT22;2661;50.786;12.728;2024-01-25T13:46:01;7.20;1.00
5276;DHT22;2661;50.786;12.728;2024-01-25T13:48:28;7.20;1.00
5276;DHT22;2661;50.786;12.728;2024-01-25T13:50:55;7.30;1.00
5276;DHT22;2661;50.786;12.728;2024-01-25T13:53:21;7.20;1.00
5276;DHT22;2661;50.786;12.728;2024-01-25T13:55:48;7.20;1.00
5276;DHT22;2661;50.786;12.728;2024-01-25T13:58:14;7.20;1.00
5276;DHT22;2661;50.786;12.728;2024-01-25T14:00:41;7.20;1.00
5276;DHT22;2661;50.786;12.728;2024-01-25T14:03:08;7.10;1.00
5276;DHT22;2661;50.786;12.728;2024-01-25T14:05:35;7.20;1.00
5276;DHT22;2661;50.786;12.728;2024-01-25T14:08:02;7.20;1.00
5276;DHT22;2661;50.786;12.728;2024-01-25T14:10:29;7.20;1.00
5276;DHT22;2661;50.786;12.728;2024-01-25T14:12:56;7.20;1.00
5276;DHT22;2661;50.786;12.728;2024-01-25T14:15:23;7.20;1.00
5276;DHT22;2661;50.786;12.728;2024-01-25T14:17:50;7.10;1.00
5276;DHT22;2661;50.786;12.728;2024-01-25T14:20:17;7.10;1.00
5276;DHT22;2661;50.786;12.728;2024-01-25T14:22:44;7.00;1.00
5276;DHT22;2661;50.786;12.728;2024-01-25T14:25:11;7.00;1.00
5276;DHT22;2661;50.786;12.728;2024-01-25T14:27:38;6.90;1.00
5276;DHT22;2661;50.786;12.728;2024-01-25T14:30:05;6.90;1.00
5276;DHT22;2661;50.786;12.728;2024-01-25T14:32:33;6.90;1.00
5276;DHT22;2661;50.786;12.728;2024-01-25T14:35:00;6.90;1.00
5276;DHT22;2661;50.786;12.728;2024-01-25T14:37:27;6.90;1.00
5276;DHT22;2661;50.786;12.728;2024-01-25T14:39:54;6.90;1.00
5276;DHT22;2661;50.786;12.728;2024-01-25T14:42:40;6.80;1.00
5276;DHT22;2661;50.786;12.728;2024-01-25T14:45:07;6.80;1.00
5276;DHT22;2661;50.786;12.728;2024-01-25T14:47:34;6.80;1.00
5276;DHT22;2661;50.786;12.728;2024-01-25T14:50:01;6.70;1.00
5276;DHT22;2661;50.786;12.728;2024-01-25T14:52:27;6.70;1.00
5276;DHT22;2661;50.786;12.728;2024-01-25T14:54:54;6.70;1.00
5276;DHT22;2661;50.786;12.728;2024-01-25T14:57:21;6.60;1.00
5276;DHT22;2661;50.786;12.728;2024-01-25T14:59:47;6.60;1.00
5276;DHT22;2661;50.786;12.728;2024-01-25T15:02:14;6.60;1.00
5276;DHT22;2661;50.786;12.728;2024-01-25T15:04:40;6.60;1.00
5276;DHT22;2661;50.786;12.728;2024-01-25T15:07:07;6.50;1.00
5276;DHT22;2661;50.786;12.728;2024-01-25T15:09:34;6.50;1.00
5276;DHT22;2661;50.786;12.728;2024-01-25T15:12:01;6.50;1.00
5276;DHT22;2661;50.786;12.728;2024-01-25T15:14:27;6.40;1.00
5276;DHT22;2661;50.786;12.728;2024-01-25T15:16:54;6.40;1.00
5276;DHT22;2661;50.786;12.728;2024-01-25T15:19:21;6.40;1.00
5276;DHT22;2661;50.786;12.728;2024-01-25T15:21:47;6.40;1.00
5276;DHT22;2661;50.786;12.728;2024-01-25T15:24:14;6.30;1.00
5276;DHT22;2661;50.786;12.728;2024-01-25T15:26:42;6.20;1.00
5276;DHT22;2661;50.786;12.728;2024-01-25T15:29:09;6.20;1.00
5276;DHT22;2661;50.786;12.728;2024-01-25T15:31:36;6.10;1.00
5276;DHT22;2661;50.786;12.728;2024-01-25T15:34:03;6.10;1.00
5276;DHT22;2661;50.786;12.728;2024-01-25T15:36:30;6.10;1.00
5276;DHT22;2661;50.786;12.728;2024-01-25T15:38:56;6.00;1.00
5276;DHT22;2661;50.786;12.728;2024-01-25T15:41:23;6.00;1.00
5276;DHT22;2661;50.786;12.728;2024-01-25T15:43:50;6.00;1.00
5276;DHT22;2661;50.786;12.728;2024-01-25T15:46:16;5.90;1.00
5276;DHT22;2661;50.786;12.728;2024-01-25T15:48:45;5.90;1.00
5276;DHT22;2661;50.786;12.728;2024-01-25T15:51:11;5.80;1.00
5276;DHT22;2661;50.786;12.728;2024-01-25T15:53:39;5.80;1.00
5276;DHT22;2661;50.786;12.728;2024-01-25T15:56:05;5.70;1.00
5276;DHT22;2661;50.786;12.728;2024-01-25T15:58:32;5.60;1.00
5276;DHT22;2661;50.786;12.728;2024-01-25T16:00:59;5.60;1.00
5276;DHT22;2661;50.786;12.728;2024-01-25T16:03:26;5.60;1.00
5276;DHT22;2661;50.786;12.728;2024-01-25T16:05:53;5.50;1.00
5276;DHT22;2661;50.786;12.728;2024-01-25T16:08:21;5.50;1.00
5276;DHT22;2661;50.786;12.728;2024-01-25T16:10:48;5.40;1.00
5276;DHT22;2661;50.786;12.728;2024-01-25T16:13:15;5.40;1.00
5276;DHT22;2661;50.786;12.728;2024-01-25T16:15:42;5.40;1.00
5276;DHT22;2661;50.786;12.728;2024-01-25T16:18:08;5.40;1.00